sensor_id;sensor_type;location;lat;lon;timestamp;temperature;humidity
8537;DHT22;4306;50.210;10.628;2023-08-20T00:01:22;23.80;99.90
8537;DHT22;4306;50.210;10.628;2023-08-20T00:03:51;23.80;99.90
8537;DHT22;4306;50.210;10.628;2023-08-20T00:06:18;23.80;99.90
8537;DHT22;4306;50.210;10.628;2023-08-20T00:08:46;23.70;99.90
8537;DHT22;4306;50.210;10.628;2023-08-20T00:11:14;23.70;99.90
8537;DHT22;4306;50.210;10.628;2023-08-20T00:13:42;23.60;99.90
8537;DHT22;4306;50.210;10.628;2023-08-20T00:16:11;23.60;99.90
8537;DHT22;4306;50.210;10.628;2023-08-20T00:18:38;23.50;99.90
8537;DHT22;4306;50.210;10.628;2023-08-20T00:21:08;23.50;99.90
8537;DHT22;4306;50.210;10.628;2023-08-20T00:23:35;23.50;99.90
8537;DHT22;4306;50.210;10.628;2023-08-20T00:26:03;23.50;99.90
8537;DHT22;4306;50.210;10.628;2023-08-20T00:28:30;23.40;99.90
8537;DHT22;4306;50.210;10.628;2023-08-20T00:30:59;23.40;99.90
8537;DHT22;4306;50.210;10.628;2023-08-20T00:33:28;23.30;99.90
8537;DHT22;4306;50.210;10.628;2023-08-20T00:35:55;23.40;99.90
8537;DHT22;4306;50.210;10.628;2023-08-20T00:38:22;23.30;99.90
8537;DHT22;4306;50.210;10.628;2023-08-20T00:40:48;23.40;99.90
8537;DHT22;4306;50.210;10.628;2023-08-20T00:43:15;23.40;99.90
8537;DHT22;4306;50.210;10.628;2023-08-20T00:45:43;23.40;99.90
8537;DHT22;4306;50.210;10.628;2023-08-20T00:48:11;23.40;99.90
8537;DHT22;4306;50.210;10.628;2023-08-20T00:50:40;23.40;99.90
8537;DHT22;4306;50.210;10.628;2023-08-20T00:53:08;23.30;99.90
8537;DHT22;4306;50.210;10.628;2023-08-20T00:55:37;23.30;99.90
8537;DHT22;4306;50.210;10.628;2023-08-20T00:58:05;23.30;99.90
8537;DHT22;4306;50.210;10.628;2023-08-20T01:00:32;23.30;99.90
8537;DHT22;4306;50.210;10.628;2023-08-20T01:02:59;23.30;99.90
8537;DHT22;4306;50.210;10.628;2023-08-20T01:05:26;23.30;99.90
8537;DHT22;4306;50.210;10.628;2023-08-20T01:08:06;23.20;99.90
8537;DHT22;4306;50.210;10.628;2023-08-20T01:10:42;23.20;99.90
8537;DHT22;4306;50.210;10.628;2023-08-20T01:13:12;23.20;99.90
8537;DHT22;4306;50.210;10.628;2023-08-20T01:15:39;23.10;99.90
8537;DHT22;4306;50.210;10.628;2023-08-20T01:18:06;23.10;99.90
8537;DHT22;4306;50.210;10.628;2023-08-20T01:20:41;22.90;99.90
8537;DHT22;4306;50.210;10.628;2023-08-20T01:23:39;22.80;99.90
8537;DHT22;4306;50.210;10.628;2023-08-20T01:26:21;22.80;99.90
8537;DHT22;4306;50.210;10.628;2023-08-20T01:28:54;22.80;99.90
8537;DHT22;4306;50.210;10.628;2023-08-20T01:31:23;22.70;99.90
8537;DHT22;4306;50.210;10.628;2023-08-20T01:33:52;22.70;99.90
8537;DHT22;4306;50.210;10.628;2023-08-20T01:36:19;22.70;99.90
8537;DHT22;4306;50.210;10.628;2023-08-20T01:38:46;22.70;99.90
8537;DHT22;4306;50.210;10.628;2023-08-20T01:41:12;22.60;99.90
8537;DHT22;4306;50.210;10.628;2023-08-20T01:43:39;22.50;99.90
8537;DHT22;4306;50.210;10.628;2023-08-20T01:46:08;22.40;99.90
8537;DHT22;4306;50.210;10.628;2023-08-20T01:48:35;22.30;99.90
8537;DHT22;4306;50.210;10.628;2023-08-20T01:51:02;22.30;99.90
8537;DHT22;4306;50.210;10.628;2023-08-20T01:53:29;22.30;99.90
8537;DHT22;4306;50.210;10.628;2023-08-20T01:55:57;22.40;99.90
8537;DHT22;4306;50.210;10.628;2023-08-20T01:58:24;22.40;99.90
8537;DHT22;4306;50.210;10.628;2023-08-20T02:00:52;22.40;99.90
8537;DHT22;4306;50.210;10.628;2023-08-20T02:03:20;22.40;99.90
8537;DHT22;4306;50.210;10.628;2023-08-20T02:05:47;22.30;99.90
8537;DHT22;4306;50.210;10.628;2023-08-20T02:08:14;22.30;99.90
8537;DHT22;4306;50.210;10.628;2023-08-20T02:10:41;22.30;99.90
8537;DHT22;4306;50.210;10.628;2023-08-20T02:13:08;22.20;99.90
8537;DHT22;4306;50.210;10.628;2023-08-20T02:15:35;22.20;99.90
8537;DHT22;4306;50.210;10.628;2023-08-20T02:18:02;22.20;99.90
8537;DHT22;4306;50.210;10.628;2023-08-20T02:20:31;22.10;99.90
8537;DHT22;4306;50.210;10.628;2023-08-20T02:22:57;22.10;99.90
8537;DHT22;4306;50.210;10.628;2023-08-20T02:25:24;22.00;99.90
8537;DHT22;4306;50.210;10.628;2023-08-20T02:27:51;21.80;99.90
8537;DHT22;4306;50.210;10.628;2023-08-20T02:30:18;21.80;99.90
8537;DHT22;4306;50.210;10.628;2023-08-20T02:32:45;21.70;99.90
8537;DHT22;4306;50.210;10.628;2023-08-20T02:35:12;21.70;99.90
8537;DHT22;4306;50.210;10.628;2023-08-20T02:37:42;21.70;99.90
8537;DHT22;4306;50.210;10.628;2023-08-20T02:40:10;21.70;99.90
8537;DHT22;4306;50.210;10.628;2023-08-20T02:42:37;21.50;99.90
8537;DHT22;4306;50.210;10.628;2023-08-20T02:45:05;21.60;99.90
8537;DHT22;4306;50.210;10.628;2023-08-20T02:47:32;21.60;99.90
8537;DHT22;4306;50.210;10.628;2023-08-20T02:49:59;21.50;99.90
8537;DHT22;4306;50.210;10.628;2023-08-20T02:52:25;21.50;99.90
8537;DHT22;4306;50.210;10.628;2023-08-20T02:54:54;21.60;99.90
8537;DHT22;4306;50.210;10.628;2023-08-20T02:57:21;21.40;99.90
8537;DHT22;4306;50.210;10.628;2023-08-20T02:59:48;21.40;99.90
8537;DHT22;4306;50.210;10.628;2023-08-20T03:02:14;21.40;99.90
8537;DHT22;4306;50.210;10.628;2023-08-20T03:04:41;21.40;99.90
8537;DHT22;4306;50.210;10.628;2023-08-20T03:07:08;21.40;99.90
8537;DHT22;4306;50.210;10.628;2023-08-20T03:09:36;21.30;99.90
8537;DHT22;4306;50.210;10.628;2023-08-20T03:12:05;21.20;99.90
8537;DHT22;4306;50.210;10.628;2023-08-20T03:14:32;21.20;99.90
8537;DHT22;4306;50.210;10.628;2023-08-20T03:16:58;21.20;99.90
8537;DHT22;4306;50.210;10.628;2023-08-20T03:19:25;21.20;99.90
8537;DHT22;4306;50.210;10.628;2023-08-20T03:21:52;21.20;99.90
8537;DHT22;4306;50.210;10.628;2023-08-20T03:24:19;21.10;99.90
8537;DHT22;4306;50.210;10.628;2023-08-20T03:26:46;21.00;99.90
8537;DHT22;4306;50.210;10.628;2023-08-20T03:29:14;21.00;99.90
8537;DHT22;4306;50.210;10.628;2023-08-20T03:31:41;21.10;99.90
8537;DHT22;4306;50.210;10.628;2023-08-20T03:34:08;21.00;99.90
8537;DHT22;4306;50.210;10.628;2023-08-20T03:36:35;20.90;99.90
8537;DHT22;4306;50.210;10.628;2023-08-20T03:39:02;20.90;99.90
8537;DHT22;4306;50.210;10.628;2023-08-20T03:41:29;20.70;99.90
8537;DHT22;4306;50.210;10.628;2023-08-20T03:43:56;20.80;99.90
8537;DHT22;4306;50.210;10.628;2023-08-20T03:46:25;20.80;99.90
8537;DHT22;4306;50.210;10.628;2023-08-20T03:48:51;20.80;99.90
8537;DHT22;4306;50.210;10.628;2023-08-20T03:51:18;20.80;99.90
8537;DHT22;4306;50.210;10.628;2023-08-20T03:53:45;20.70;99.90
8537;DHT22;4306;50.210;10.628;2023-08-20T03:56:12;20.70;99.90
8537;DHT22;4306;50.210;10.628;2023-08-20T03:58:39;20.70;99.90
8537;DHT22;4306;50.210;10.628;2023-08-20T04:01:06;20.80;99.90
8537;DHT22;4306;50.210;10.628;2023-08-20T04:03:34;20.80;99.90
8537;DHT22;4306;50.210;10.628;2023-08-20T04:06:01;20.70;99.90
8537;DHT22;4306;50.210;10.628;2023-08-20T04:08:29;20.60;99.90
8537;DHT22;4306;50.210;10.628;2023-08-20T04:10:56;20.60;99.90
8537;DHT22;4306;50.210;10.628;2023-08-20T04:13:23;20.70;99.90
8537;DHT22;4306;50.210;10.628;2023-08-20T04:15:51;20.70;99.90
8537;DHT22;4306;50.210;10.628;2023-08-20T04:18:18;20.80;99.90
8537;DHT22;4306;50.210;10.628;2023-08-20T04:20:46;20.70;99.90
8537;DHT22;4306;50.210;10.628;2023-08-20T04:23:13;20.80;99.90
8537;DHT22;4306;50.210;10.628;2023-08-20T04:25:40;20.80;99.90
8537;DHT22;4306;50.210;10.628;2023-08-20T04:28:07;20.80;99.90
8537;DHT22;4306;50.210;10.628;2023-08-20T04:30:35;20.80;99.90
8537;DHT22;4306;50.210;10.628;2023-08-20T04:33:02;20.80;99.90
8537;DHT22;4306;50.210;10.628;2023-08-20T04:35:29;20.70;99.90
8537;DHT22;4306;50.210;10.628;2023-08-20T04:37:58;20.70;99.90
8537;DHT22;4306;50.210;10.628;2023-08-20T04:40:25;20.70;99.90
8537;DHT22;4306;50.210;10.628;2023-08-20T04:42:51;20.70;99.90
8537;DHT22;4306;50.210;10.628;2023-08-20T04:45:18;20.60;99.90
8537;DHT22;4306;50.210;10.628;2023-08-20T04:47:46;20.60;99.90
8537;DHT22;4306;50.210;10.628;2023-08-20T04:50:13;20.50;99.90
8537;DHT22;4306;50.210;10.628;2023-08-20T04:52:40;20.60;99.90
8537;DHT22;4306;50.210;10.628;2023-08-20T04:55:08;20.60;99.90
8537;DHT22;4306;50.210;10.628;2023-08-20T04:57:35;20.60;99.90
8537;DHT22;4306;50.210;10.628;2023-08-20T05:00:03;20.70;99.90
8537;DHT22;4306;50.210;10.628;2023-08-20T05:02:30;20.70;99.90
8537;DHT22;4306;50.210;10.628;2023-08-20T05:04:57;20.70;99.90
8537;DHT22;4306;50.210;10.628;2023-08-20T05:07:24;20.70;99.90
8537;DHT22;4306;50.210;10.628;2023-08-20T05:09:51;20.80;99.90
8537;DHT22;4306;50.210;10.628;2023-08-20T05:12:19;20.80;99.90
8537;DHT22;4306;50.210;10.628;2023-08-20T05:14:46;20.70;99.90
8537;DHT22;4306;50.210;10.628;2023-08-20T05:17:13;20.80;99.90
8537;DHT22;4306;50.210;10.628;2023-08-20T05:19:40;20.70;99.90
8537;DHT22;4306;50.210;10.628;2023-08-20T05:22:07;20.80;99.90
8537;DHT22;4306;50.210;10.628;2023-08-20T05:24:34;20.80;99.90
8537;DHT22;4306;50.210;10.628;2023-08-20T05:27:06;20.90;99.90
8537;DHT22;4306;50.210;10.628;2023-08-20T05:29:34;20.90;99.90
8537;DHT22;4306;50.210;10.628;2023-08-20T05:32:02;20.90;99.90
8537;DHT22;4306;50.210;10.628;2023-08-20T05:34:28;20.90;99.90
8537;DHT22;4306;50.210;10.628;2023-08-20T05:36:55;20.90;99.90
8537;DHT22;4306;50.210;10.628;2023-08-20T05:39:22;21.00;99.90
8537;DHT22;4306;50.210;10.628;2023-08-20T05:41:51;21.00;99.90
8537;DHT22;4306;50.210;10.628;2023-08-20T05:44:18;21.10;99.90
8537;DHT22;4306;50.210;10.628;2023-08-20T05:46:46;21.10;99.90
8537;DHT22;4306;50.210;10.628;2023-08-20T05:49:14;21.20;99.90
8537;DHT22;4306;50.210;10.628;2023-08-20T05:51:41;21.20;99.90
8537;DHT22;4306;50.210;10.628;2023-08-20T05:54:08;21.30;99.90
8537;DHT22;4306;50.210;10.628;2023-08-20T05:56:35;21.40;99.90
8537;DHT22;4306;50.210;10.628;2023-08-20T05:59:02;21.40;99.90
8537;DHT22;4306;50.210;10.628;2023-08-20T06:01:29;21.50;99.90
8537;DHT22;4306;50.210;10.628;2023-08-20T06:03:58;21.60;99.90
8537;DHT22;4306;50.210;10.628;2023-08-20T06:06:25;21.70;99.90
8537;DHT22;4306;50.210;10.628;2023-08-20T06:08:52;21.70;99.90
8537;DHT22;4306;50.210;10.628;2023-08-20T06:11:20;21.70;99.90
8537;DHT22;4306;50.210;10.628;2023-08-20T06:13:47;21.90;99.90
8537;DHT22;4306;50.210;10.628;2023-08-20T06:16:14;21.90;99.90
8537;DHT22;4306;50.210;10.628;2023-08-20T06:18:41;22.00;99.90
8537;DHT22;4306;50.210;10.628;2023-08-20T06:21:09;22.10;99.90
8537;DHT22;4306;50.210;10.628;2023-08-20T06:23:36;22.20;99.90
8537;DHT22;4306;50.210;10.628;2023-08-20T06:26:03;22.30;99.90
8537;DHT22;4306;50.210;10.628;2023-08-20T06:28:30;22.40;99.90
8537;DHT22;4306;50.210;10.628;2023-08-20T06:30:57;22.50;99.90
8537;DHT22;4306;50.210;10.628;2023-08-20T06:33:24;22.50;99.90
8537;DHT22;4306;50.210;10.628;2023-08-20T06:35:51;22.60;99.90
8537;DHT22;4306;50.210;10.628;2023-08-20T06:38:19;22.70;99.90
8537;DHT22;4306;50.210;10.628;2023-08-20T06:40:46;22.80;99.90
8537;DHT22;4306;50.210;10.628;2023-08-20T06:43:13;22.90;99.90
8537;DHT22;4306;50.210;10.628;2023-08-20T06:45:40;23.00;99.90
8537;DHT22;4306;50.210;10.628;2023-08-20T06:48:07;23.10;99.90
8537;DHT22;4306;50.210;10.628;2023-08-20T06:50:34;23.20;99.90
8537;DHT22;4306;50.210;10.628;2023-08-20T06:53:01;23.30;99.90
8537;DHT22;4306;50.210;10.628;2023-08-20T06:55:29;23.30;99.90
8537;DHT22;4306;50.210;10.628;2023-08-20T06:57:56;23.40;99.90
8537;DHT22;4306;50.210;10.628;2023-08-20T07:00:23;23.50;99.90
8537;DHT22;4306;50.210;10.628;2023-08-20T07:02:50;23.60;99.90
8537;DHT22;4306;50.210;10.628;2023-08-20T07:05:17;23.60;99.90
8537;DHT22;4306;50.210;10.628;2023-08-20T07:07:45;23.70;99.90
8537;DHT22;4306;50.210;10.628;2023-08-20T07:10:13;23.80;99.90
8537;DHT22;4306;50.210;10.628;2023-08-20T07:12:41;23.90;99.90
8537;DHT22;4306;50.210;10.628;2023-08-20T07:15:08;23.90;99.90
8537;DHT22;4306;50.210;10.628;2023-08-20T07:17:35;24.40;99.90
8537;DHT22;4306;50.210;10.628;2023-08-20T07:20:05;24.10;99.90
8537;DHT22;4306;50.210;10.628;2023-08-20T07:22:32;24.20;99.90
8537;DHT22;4306;50.210;10.628;2023-08-20T07:24:59;24.20;99.90
8537;DHT22;4306;50.210;10.628;2023-08-20T07:27:27;24.30;99.90
8537;DHT22;4306;50.210;10.628;2023-08-20T07:29:55;24.40;99.90
8537;DHT22;4306;50.210;10.628;2023-08-20T07:32:22;24.40;99.90
8537;DHT22;4306;50.210;10.628;2023-08-20T07:34:49;24.50;99.90
8537;DHT22;4306;50.210;10.628;2023-08-20T07:37:17;24.60;99.90
8537;DHT22;4306;50.210;10.628;2023-08-20T07:39:44;24.70;99.90
8537;DHT22;4306;50.210;10.628;2023-08-20T07:42:11;24.70;99.90
8537;DHT22;4306;50.210;10.628;2023-08-20T07:44:38;24.80;99.90
8537;DHT22;4306;50.210;10.628;2023-08-20T07:47:06;24.90;99.90
8537;DHT22;4306;50.210;10.628;2023-08-20T07:49:33;24.90;99.90
8537;DHT22;4306;50.210;10.628;2023-08-20T07:52:00;25.00;99.90
8537;DHT22;4306;50.210;10.628;2023-08-20T07:54:27;25.10;99.90
8537;DHT22;4306;50.210;10.628;2023-08-20T07:56:55;25.10;99.90
8537;DHT22;4306;50.210;10.628;2023-08-20T07:59:22;25.20;99.90
8537;DHT22;4306;50.210;10.628;2023-08-20T08:01:49;25.30;99.90
8537;DHT22;4306;50.210;10.628;2023-08-20T08:04:17;25.40;99.90
8537;DHT22;4306;50.210;10.628;2023-08-20T08:06:44;25.50;99.90
8537;DHT22;4306;50.210;10.628;2023-08-20T08:09:19;25.50;99.90
8537;DHT22;4306;50.210;10.628;2023-08-20T08:11:47;25.50;99.90
8537;DHT22;4306;50.210;10.628;2023-08-20T08:14:14;25.50;99.90
8537;DHT22;4306;50.210;10.628;2023-08-20T08:16:41;25.50;99.90
8537;DHT22;4306;50.210;10.628;2023-08-20T08:19:08;25.60;99.90
8537;DHT22;4306;50.210;10.628;2023-08-20T08:21:36;25.70;99.90
8537;DHT22;4306;50.210;10.628;2023-08-20T08:24:04;25.80;99.90
8537;DHT22;4306;50.210;10.628;2023-08-20T08:26:33;25.90;99.90
8537;DHT22;4306;50.210;10.628;2023-08-20T08:29:00;25.90;99.90
8537;DHT22;4306;50.210;10.628;2023-08-20T08:34:52;26.10;99.90
8537;DHT22;4306;50.210;10.628;2023-08-20T08:37:20;26.10;99.90
8537;DHT22;4306;50.210;10.628;2023-08-20T08:39:47;26.20;99.90
8537;DHT22;4306;50.210;10.628;2023-08-20T08:42:14;26.20;99.90
8537;DHT22;4306;50.210;10.628;2023-08-20T08:44:42;26.30;99.90
8537;DHT22;4306;50.210;10.628;2023-08-20T08:47:10;26.30;99.90
8537;DHT22;4306;50.210;10.628;2023-08-20T08:49:38;26.40;99.90
8537;DHT22;4306;50.210;10.628;2023-08-20T08:52:06;26.30;99.90
8537;DHT22;4306;50.210;10.628;2023-08-20T08:54:35;26.40;99.90
8537;DHT22;4306;50.210;10.628;2023-08-20T08:57:03;26.40;99.90
8537;DHT22;4306;50.210;10.628;2023-08-20T08:59:31;26.50;99.90
8537;DHT22;4306;50.210;10.628;2023-08-20T09:01:58;26.60;99.90
8537;DHT22;4306;50.210;10.628;2023-08-20T09:04:25;26.70;99.90
8537;DHT22;4306;50.210;10.628;2023-08-20T09:06:55;26.80;99.90
8537;DHT22;4306;50.210;10.628;2023-08-20T09:09:23;26.80;99.90
8537;DHT22;4306;50.210;10.628;2023-08-20T09:11:51;26.90;99.90
8537;DHT22;4306;50.210;10.628;2023-08-20T09:18:03;27.00;99.90
8537;DHT22;4306;50.210;10.628;2023-08-20T09:20:37;27.10;99.90
8537;DHT22;4306;50.210;10.628;2023-08-20T09:23:04;27.20;99.90
8537;DHT22;4306;50.210;10.628;2023-08-20T09:25:37;27.30;99.90
8537;DHT22;4306;50.210;10.628;2023-08-20T09:28:06;27.40;99.90
8537;DHT22;4306;50.210;10.628;2023-08-20T09:30:33;27.40;99.90
8537;DHT22;4306;50.210;10.628;2023-08-20T09:33:04;27.50;99.90
8537;DHT22;4306;50.210;10.628;2023-08-20T09:35:31;27.50;99.90
8537;DHT22;4306;50.210;10.628;2023-08-20T09:38:02;27.60;99.90
8537;DHT22;4306;50.210;10.628;2023-08-20T09:40:30;27.60;99.90
8537;DHT22;4306;50.210;10.628;2023-08-20T09:42:57;27.60;99.90
8537;DHT22;4306;50.210;10.628;2023-08-20T09:45:28;27.70;99.90
8537;DHT22;4306;50.210;10.628;2023-08-20T09:47:56;27.60;99.90
8537;DHT22;4306;50.210;10.628;2023-08-20T09:50:26;27.70;99.90
8537;DHT22;4306;50.210;10.628;2023-08-20T09:52:58;27.80;99.90
8537;DHT22;4306;50.210;10.628;2023-08-20T09:55:33;27.80;99.90
8537;DHT22;4306;50.210;10.628;2023-08-20T09:58:01;27.90;99.90
8537;DHT22;4306;50.210;10.628;2023-08-20T10:00:30;27.80;99.90
8537;DHT22;4306;50.210;10.628;2023-08-20T10:02:58;27.90;99.90
8537;DHT22;4306;50.210;10.628;2023-08-20T10:05:26;28.00;99.90
8537;DHT22;4306;50.210;10.628;2023-08-20T10:07:54;28.00;99.90
8537;DHT22;4306;50.210;10.628;2023-08-20T10:10:22;28.10;99.90
8537;DHT22;4306;50.210;10.628;2023-08-20T10:12:49;28.10;99.90
8537;DHT22;4306;50.210;10.628;2023-08-20T10:15:17;28.10;99.90
8537;DHT22;4306;50.210;10.628;2023-08-20T10:17:46;28.10;99.90
8537;DHT22;4306;50.210;10.628;2023-08-20T10:20:13;28.20;99.90
8537;DHT22;4306;50.210;10.628;2023-08-20T10:22:42;28.20;99.90
8537;DHT22;4306;50.210;10.628;2023-08-20T10:25:10;28.30;99.90
8537;DHT22;4306;50.210;10.628;2023-08-20T10:27:39;28.40;99.90
8537;DHT22;4306;50.210;10.628;2023-08-20T10:30:09;28.40;99.90
8537;DHT22;4306;50.210;10.628;2023-08-20T10:32:47;28.40;99.90
8537;DHT22;4306;50.210;10.628;2023-08-20T10:35:15;28.40;99.90
8537;DHT22;4306;50.210;10.628;2023-08-20T10:38:03;28.40;99.90
8537;DHT22;4306;50.210;10.628;2023-08-20T10:40:53;28.50;99.90
8537;DHT22;4306;50.210;10.628;2023-08-20T10:43:51;28.40;99.90
8537;DHT22;4306;50.210;10.628;2023-08-20T10:46:19;28.40;99.90
8537;DHT22;4306;50.210;10.628;2023-08-20T10:48:50;28.40;99.90
8537;DHT22;4306;50.210;10.628;2023-08-20T10:51:18;28.50;99.90
8537;DHT22;4306;50.210;10.628;2023-08-20T10:54:03;28.60;99.90
8537;DHT22;4306;50.210;10.628;2023-08-20T10:56:41;28.80;99.90
8537;DHT22;4306;50.210;10.628;2023-08-20T10:59:10;28.80;99.90
8537;DHT22;4306;50.210;10.628;2023-08-20T11:01:39;28.90;99.90
8537;DHT22;4306;50.210;10.628;2023-08-20T11:04:09;28.90;99.90
8537;DHT22;4306;50.210;10.628;2023-08-20T11:06:36;28.90;99.90
8537;DHT22;4306;50.210;10.628;2023-08-20T11:09:04;28.90;99.90
8537;DHT22;4306;50.210;10.628;2023-08-20T11:11:32;28.90;99.90
8537;DHT22;4306;50.210;10.628;2023-08-20T11:14:04;29.00;99.90
8537;DHT22;4306;50.210;10.628;2023-08-20T11:16:32;29.00;99.90
8537;DHT22;4306;50.210;10.628;2023-08-20T11:18:59;29.10;99.90
8537;DHT22;4306;50.210;10.628;2023-08-20T11:21:30;29.10;99.80
8537;DHT22;4306;50.210;10.628;2023-08-20T11:23:57;29.10;99.90
8537;DHT22;4306;50.210;10.628;2023-08-20T11:26:24;29.30;99.90
8537;DHT22;4306;50.210;10.628;2023-08-20T11:28:51;29.30;99.70
8537;DHT22;4306;50.210;10.628;2023-08-20T11:31:18;29.50;99.90
8537;DHT22;4306;50.210;10.628;2023-08-20T11:33:46;29.60;99.40
8537;DHT22;4306;50.210;10.628;2023-08-20T11:36:15;29.50;99.90
8537;DHT22;4306;50.210;10.628;2023-08-20T11:38:49;29.60;99.70
8537;DHT22;4306;50.210;10.628;2023-08-20T11:41:16;29.70;99.90
8537;DHT22;4306;50.210;10.628;2023-08-20T11:43:43;29.80;99.90
8537;DHT22;4306;50.210;10.628;2023-08-20T11:46:13;29.90;99.90
8537;DHT22;4306;50.210;10.628;2023-08-20T11:48:59;30.00;99.60
8537;DHT22;4306;50.210;10.628;2023-08-20T11:51:27;30.10;99.50
8537;DHT22;4306;50.210;10.628;2023-08-20T11:53:55;30.10;99.00
8537;DHT22;4306;50.210;10.628;2023-08-20T11:56:22;30.20;98.40
8537;DHT22;4306;50.210;10.628;2023-08-20T11:58:50;30.30;99.10
8537;DHT22;4306;50.210;10.628;2023-08-20T12:01:18;30.30;97.30
8537;DHT22;4306;50.210;10.628;2023-08-20T12:03:45;30.30;98.50
8537;DHT22;4306;50.210;10.628;2023-08-20T12:06:19;30.40;99.10
8537;DHT22;4306;50.210;10.628;2023-08-20T12:08:46;30.30;97.60
8537;DHT22;4306;50.210;10.628;2023-08-20T12:11:15;30.30;97.70
8537;DHT22;4306;50.210;10.628;2023-08-20T12:13:42;30.10;98.30
8537;DHT22;4306;50.210;10.628;2023-08-20T12:16:08;30.10;98.40
8537;DHT22;4306;50.210;10.628;2023-08-20T12:18:35;30.30;99.30
8537;DHT22;4306;50.210;10.628;2023-08-20T12:21:03;30.30;98.60
8537;DHT22;4306;50.210;10.628;2023-08-20T12:23:30;30.30;98.20
8537;DHT22;4306;50.210;10.628;2023-08-20T12:25:56;30.40;98.20
8537;DHT22;4306;50.210;10.628;2023-08-20T12:28:25;30.50;98.20
8537;DHT22;4306;50.210;10.628;2023-08-20T12:30:51;30.50;97.90
8537;DHT22;4306;50.210;10.628;2023-08-20T12:33:19;30.60;98.40
8537;DHT22;4306;50.210;10.628;2023-08-20T12:35:46;30.60;97.10
8537;DHT22;4306;50.210;10.628;2023-08-20T12:38:13;30.50;97.40
8537;DHT22;4306;50.210;10.628;2023-08-20T12:40:40;30.40;97.70
8537;DHT22;4306;50.210;10.628;2023-08-20T12:43:06;30.60;97.00
8537;DHT22;4306;50.210;10.628;2023-08-20T12:45:34;30.70;97.40
8537;DHT22;4306;50.210;10.628;2023-08-20T12:48:02;30.70;96.80
8537;DHT22;4306;50.210;10.628;2023-08-20T12:50:29;30.90;97.10
8537;DHT22;4306;50.210;10.628;2023-08-20T12:52:56;30.90;97.00
8537;DHT22;4306;50.210;10.628;2023-08-20T12:55:23;30.90;95.80
8537;DHT22;4306;50.210;10.628;2023-08-20T12:57:53;30.70;95.30
8537;DHT22;4306;50.210;10.628;2023-08-20T13:00:21;30.80;96.80
8537;DHT22;4306;50.210;10.628;2023-08-20T13:02:50;30.90;96.90
8537;DHT22;4306;50.210;10.628;2023-08-20T13:05:17;31.10;96.40
8537;DHT22;4306;50.210;10.628;2023-08-20T13:07:44;31.20;96.20
8537;DHT22;4306;50.210;10.628;2023-08-20T13:10:12;31.20;97.00
8537;DHT22;4306;50.210;10.628;2023-08-20T13:12:41;31.30;96.30
8537;DHT22;4306;50.210;10.628;2023-08-20T13:15:09;31.20;95.90
8537;DHT22;4306;50.210;10.628;2023-08-20T13:17:36;31.30;96.90
8537;DHT22;4306;50.210;10.628;2023-08-20T13:20:06;31.40;96.10
8537;DHT22;4306;50.210;10.628;2023-08-20T13:22:33;31.30;95.10
8537;DHT22;4306;50.210;10.628;2023-08-20T13:25:00;31.40;96.00
8537;DHT22;4306;50.210;10.628;2023-08-20T13:27:27;31.50;95.90
8537;DHT22;4306;50.210;10.628;2023-08-20T13:29:54;31.60;96.20
8537;DHT22;4306;50.210;10.628;2023-08-20T13:32:21;31.60;94.10
8537;DHT22;4306;50.210;10.628;2023-08-20T13:34:48;31.30;95.10
8537;DHT22;4306;50.210;10.628;2023-08-20T13:37:17;31.40;95.10
8537;DHT22;4306;50.210;10.628;2023-08-20T13:39:43;31.50;94.60
8537;DHT22;4306;50.210;10.628;2023-08-20T13:42:10;31.50;94.80
8537;DHT22;4306;50.210;10.628;2023-08-20T13:44:37;31.50;94.90
8537;DHT22;4306;50.210;10.628;2023-08-20T13:47:06;31.60;94.80
8537;DHT22;4306;50.210;10.628;2023-08-20T13:49:33;31.70;95.30
8537;DHT22;4306;50.210;10.628;2023-08-20T13:52:00;31.70;93.10
8537;DHT22;4306;50.210;10.628;2023-08-20T13:54:28;31.60;94.30
8537;DHT22;4306;50.210;10.628;2023-08-20T13:56:56;31.70;93.50
8537;DHT22;4306;50.210;10.628;2023-08-20T13:59:23;31.70;93.50
8537;DHT22;4306;50.210;10.628;2023-08-20T14:01:50;31.60;92.40
8537;DHT22;4306;50.210;10.628;2023-08-20T14:04:17;31.60;93.90
8537;DHT22;4306;50.210;10.628;2023-08-20T14:06:44;31.70;92.70
8537;DHT22;4306;50.210;10.628;2023-08-20T14:09:13;31.70;93.40
8537;DHT22;4306;50.210;10.628;2023-08-20T14:11:44;31.90;92.20
8537;DHT22;4306;50.210;10.628;2023-08-20T14:14:11;31.70;92.10
8537;DHT22;4306;50.210;10.628;2023-08-20T14:16:38;31.70;92.30
8537;DHT22;4306;50.210;10.628;2023-08-20T14:19:05;31.70;92.70
8537;DHT22;4306;50.210;10.628;2023-08-20T14:21:33;31.70;93.40
8537;DHT22;4306;50.210;10.628;2023-08-20T14:24:00;31.90;93.60
8537;DHT22;4306;50.210;10.628;2023-08-20T14:26:27;32.00;93.40
8537;DHT22;4306;50.210;10.628;2023-08-20T14:28:55;32.10;92.80
8537;DHT22;4306;50.210;10.628;2023-08-20T14:31:22;32.20;93.10
8537;DHT22;4306;50.210;10.628;2023-08-20T14:33:49;32.30;92.50
8537;DHT22;4306;50.210;10.628;2023-08-20T14:36:15;32.30;92.90
8537;DHT22;4306;50.210;10.628;2023-08-20T14:38:42;32.40;92.80
8537;DHT22;4306;50.210;10.628;2023-08-20T14:41:09;32.40;90.90
8537;DHT22;4306;50.210;10.628;2023-08-20T14:43:36;32.20;91.90
8537;DHT22;4306;50.210;10.628;2023-08-20T14:46:04;31.90;91.30
8537;DHT22;4306;50.210;10.628;2023-08-20T14:48:32;32.10;92.00
8537;DHT22;4306;50.210;10.628;2023-08-20T14:51:00;32.30;92.70
8537;DHT22;4306;50.210;10.628;2023-08-20T14:53:27;32.30;92.40
8537;DHT22;4306;50.210;10.628;2023-08-20T14:56:00;32.40;90.70
8537;DHT22;4306;50.210;10.628;2023-08-20T14:58:28;32.00;91.10
8537;DHT22;4306;50.210;10.628;2023-08-20T15:00:55;32.10;92.50
8537;DHT22;4306;50.210;10.628;2023-08-20T15:03:23;32.10;91.60
8537;DHT22;4306;50.210;10.628;2023-08-20T15:05:50;32.30;91.50
8537;DHT22;4306;50.210;10.628;2023-08-20T15:08:17;32.40;91.90
8537;DHT22;4306;50.210;10.628;2023-08-20T15:10:48;32.50;92.10
8537;DHT22;4306;50.210;10.628;2023-08-20T15:13:22;32.50;91.70
8537;DHT22;4306;50.210;10.628;2023-08-20T15:15:51;32.60;91.70
8537;DHT22;4306;50.210;10.628;2023-08-20T15:18:18;32.60;91.00
8537;DHT22;4306;50.210;10.628;2023-08-20T15:20:53;32.60;91.20
8537;DHT22;4306;50.210;10.628;2023-08-20T15:23:20;32.70;92.30
8537;DHT22;4306;50.210;10.628;2023-08-20T15:25:47;32.60;90.70
8537;DHT22;4306;50.210;10.628;2023-08-20T15:28:14;32.60;90.60
8537;DHT22;4306;50.210;10.628;2023-08-20T15:30:41;32.50;91.10
8537;DHT22;4306;50.210;10.628;2023-08-20T15:33:08;32.60;89.50
8537;DHT22;4306;50.210;10.628;2023-08-20T15:35:37;32.20;88.30
8537;DHT22;4306;50.210;10.628;2023-08-20T15:38:05;32.30;90.30
8537;DHT22;4306;50.210;10.628;2023-08-20T15:40:32;32.10;91.30
8537;DHT22;4306;50.210;10.628;2023-08-20T15:42:59;32.40;91.10
8537;DHT22;4306;50.210;10.628;2023-08-20T15:45:26;32.40;91.00
8537;DHT22;4306;50.210;10.628;2023-08-20T15:47:53;32.30;91.10
8537;DHT22;4306;50.210;10.628;2023-08-20T15:50:20;32.10;91.00
8537;DHT22;4306;50.210;10.628;2023-08-20T15:52:47;31.90;91.50
8537;DHT22;4306;50.210;10.628;2023-08-20T15:55:15;31.90;91.00
8537;DHT22;4306;50.210;10.628;2023-08-20T15:57:42;32.00;91.30